createdAt,value
2023-04-02T00:01:09.011Z,9.13
2023-04-02T00:04:14.667Z,9.01
2023-04-02T00:06:47.565Z,8.92
2023-04-02T00:09:34.049Z,8.92
2023-04-02T00:12:21.198Z,8.88
2023-04-02T00:14:55.128Z,8.98
2023-04-02T00:17:28.019Z,9.10
2023-04-02T00:20:06.502Z,9.03
2023-04-02T00:22:36.533Z,9.05
2023-04-02T00:25:16.459Z,8.95
2023-04-02T00:27:49.511Z,8.76
2023-04-02T00:30:19.480Z,8.98
2023-04-02T00:32:49.568Z,8.83
2023-04-02T00:35:27.933Z,8.71
2023-04-02T00:38:00.124Z,8.96
2023-04-02T00:40:34.327Z,8.98
2023-04-02T00:43:16.887Z,8.91
2023-04-02T00:45:54.858Z,8.88
2023-04-02T00:48:40.718Z,8.89
2023-04-02T00:51:23.930Z,8.83
2023-04-02T00:53:59.511Z,8.87
2023-04-02T00:56:36.424Z,9.00
2023-04-02T00:59:23.641Z,9.11
2023-04-02T01:01:57.146Z,8.93
2023-04-02T01:04:37.904Z,8.97
2023-04-02T01:07:13.423Z,8.95
2023-04-02T01:10:10.774Z,8.94
2023-04-02T01:13:00.221Z,8.99
2023-04-02T01:15:41.388Z,9.19
2023-04-02T01:18:33.440Z,9.05
2023-04-02T01:21:29.200Z,9.07
2023-04-02T01:24:07.389Z,9.13
2023-04-02T01:26:50.117Z,9.20
2023-04-02T01:29:31.734Z,9.11
2023-04-02T01:32:05.690Z,9.25
2023-04-02T01:34:38.070Z,9.22
2023-04-02T01:37:32.497Z,9.18
2023-04-02T01:40:27.017Z,9.13
2023-04-02T01:43:09.286Z,8.95
2023-04-02T01:45:41.916Z,8.83
2023-04-02T01:48:20.101Z,8.95
2023-04-02T01:50:55.140Z,8.89
2023-04-02T01:53:29.944Z,8.92
2023-04-02T01:56:02.346Z,9.04
2023-04-02T01:58:34.601Z,8.96
2023-04-02T02:01:17.327Z,9.02
2023-04-02T02:03:48.438Z,8.83
2023-04-02T02:06:20.682Z,9.08
2023-04-02T02:08:54.454Z,9.09
2023-04-02T02:11:27.752Z,9.11
2023-04-02T02:14:01.021Z,9.11
2023-04-02T02:16:41.809Z,9.01
2023-04-02T02:19:26.179Z,8.90
2023-04-02T02:21:59.938Z,8.92
2023-04-02T02:24:35.861Z,8.81
2023-04-02T02:27:35.766Z,8.82
2023-04-02T02:30:19.117Z,8.87
2023-04-02T02:33:01.313Z,8.91
2023-04-02T02:35:37.993Z,8.83
2023-04-02T02:38:32.910Z,8.76
2023-04-02T02:41:17.135Z,8.95
2023-04-02T02:43:53.767Z,8.74
2023-04-02T02:46:28.196Z,8.57
2023-04-02T02:49:04.849Z,8.79
2023-04-02T02:51:45.159Z,8.73
2023-04-02T02:54:22.092Z,8.53
2023-04-02T02:56:59.894Z,8.53
2023-04-02T02:59:33.467Z,8.62
2023-04-02T03:02:08.273Z,8.73
2023-04-02T03:04:41.652Z,8.60
2023-04-02T03:07:19.451Z,8.77
2023-04-02T03:09:57.512Z,8.73
2023-04-02T03:12:39.649Z,8.90
2023-04-02T03:15:21.589Z,8.67
2023-04-02T03:17:58.588Z,8.79
2023-04-02T03:20:41.893Z,8.67
2023-04-02T03:23:24.656Z,8.74
2023-04-02T03:26:05.084Z,8.64
2023-04-02T03:28:44.139Z,8.61
2023-04-02T03:31:22.430Z,8.84
2023-04-02T03:33:58.508Z,8.75
2023-04-02T03:36:43.707Z,8.62
2023-04-02T03:39:25.491Z,8.66
2023-04-02T03:42:03.152Z,8.77
2023-04-02T03:44:39.621Z,8.66
2023-04-02T03:47:19.878Z,8.67
2023-04-02T03:49:59.150Z,8.79
2023-04-02T03:52:33.187Z,8.78
2023-04-02T03:55:16.123Z,8.70
2023-04-02T03:57:57.106Z,8.66
2023-04-02T04:00:39.254Z,8.79
2023-04-02T04:03:17.197Z,8.86
2023-04-02T04:05:53.700Z,8.64
2023-04-02T04:08:38.208Z,8.75
2023-04-02T04:11:16.647Z,8.73
2023-04-02T04:13:53.961Z,8.79
2023-04-02T04:16:31.134Z,8.70
2023-04-02T04:19:08.305Z,8.80
2023-04-02T04:21:40.099Z,8.66
2023-04-02T04:24:26.004Z,8.74
2023-04-02T04:27:09.746Z,8.75
2023-04-02T04:29:55.630Z,8.61
2023-04-02T04:32:32.368Z,8.61
2023-04-02T04:35:18.598Z,8.63
2023-04-02T04:37:53.760Z,8.63
2023-04-02T04:40:33.006Z,8.57
2023-04-02T04:43:08.470Z,8.59
2023-04-02T04:45:47.823Z,8.54
2023-04-02T04:48:27.606Z,8.64
2023-04-02T04:51:05.299Z,8.81
2023-04-02T04:53:35.857Z,8.73
2023-04-02T04:56:18.909Z,8.80
2023-04-02T04:59:00.683Z,8.81
2023-04-02T05:01:40.524Z,8.64
2023-04-02T05:04:20.489Z,8.68
2023-04-02T05:06:58.472Z,8.57
2023-04-02T05:09:37.762Z,8.52
2023-04-02T05:12:21.312Z,8.72
2023-04-02T05:14:59.500Z,8.86
2023-04-02T05:17:36.693Z,8.77
2023-04-02T05:20:18.311Z,8.69
2023-04-02T05:22:57.707Z,8.64
2023-04-02T05:25:31.172Z,8.53
2023-04-02T05:28:14.377Z,8.52
2023-04-02T05:30:53.103Z,8.56
2023-04-02T05:33:28.853Z,8.64
2023-04-02T05:36:06.207Z,8.66
2023-04-02T05:38:48.817Z,8.58
2023-04-02T05:41:31.341Z,8.75
2023-04-02T05:44:15.072Z,8.80
2023-04-02T05:46:52.648Z,8.83
2023-04-02T05:49:35.781Z,8.71
2023-04-02T05:52:11.358Z,8.91
2023-04-02T05:54:52.018Z,8.97
2023-04-02T05:57:42.422Z,8.99
2023-04-02T06:00:28.142Z,8.96
2023-04-02T06:03:07.670Z,8.96
2023-04-02T06:05:45.182Z,9.12
2023-04-02T06:08:24.106Z,8.96
2023-04-02T06:11:01.873Z,9.17
2023-04-02T06:13:32.497Z,9.35
2023-04-02T06:16:06.458Z,9.48
2023-04-02T06:18:39.700Z,9.56
2023-04-02T06:21:09.697Z,9.52
2023-04-02T06:23:46.875Z,9.18
2023-04-02T06:26:24.912Z,9.25
2023-04-02T06:29:04.190Z,9.33
2023-04-02T06:31:41.903Z,9.63
2023-04-02T06:34:20.047Z,9.64
2023-04-02T06:37:15.831Z,9.64
2023-04-02T06:39:46.776Z,9.60
2023-04-02T06:42:24.069Z,9.36
2023-04-02T06:45:23.291Z,9.48
2023-04-02T06:48:22.780Z,9.47
2023-04-02T06:51:07.225Z,9.63
2023-04-02T06:53:41.919Z,9.41
2023-04-02T06:56:27.183Z,9.43
2023-04-02T06:58:57.692Z,9.44
2023-04-02T07:01:33.603Z,9.42
2023-04-02T07:04:06.384Z,9.55
2023-04-02T07:06:41.849Z,9.35
2023-04-02T07:09:13.056Z,9.32
2023-04-02T07:11:46.917Z,9.47
2023-04-02T07:14:17.726Z,9.70
2023-04-02T07:16:47.948Z,9.69
2023-04-02T07:19:25.016Z,9.86
2023-04-02T07:21:58.953Z,9.89
2023-04-02T07:24:34.252Z,9.83
2023-04-02T07:27:04.167Z,9.99
2023-04-02T07:29:43.006Z,9.99
2023-04-02T07:32:13.910Z,9.66
2023-04-02T07:34:46.493Z,9.70
2023-04-02T07:37:17.383Z,9.75
2023-04-02T07:39:47.347Z,10.09
2023-04-02T07:42:17.312Z,9.93
2023-04-02T07:44:47.250Z,10.09
2023-04-02T07:47:17.391Z,10.23
2023-04-02T07:49:49.988Z,10.22
2023-04-02T07:52:19.907Z,10.26
2023-04-02T07:54:50.138Z,10.15
2023-04-02T07:57:20.179Z,10.02
2023-04-02T07:59:50.906Z,10.10
2023-04-02T08:02:24.576Z,10.35
2023-04-02T08:04:57.126Z,10.52
2023-04-02T08:07:27.240Z,10.67
2023-04-02T08:09:57.199Z,10.05
2023-04-02T08:12:27.242Z,10.14
2023-04-02T08:14:57.319Z,10.18
2023-04-02T08:17:31.368Z,10.32
2023-04-02T08:20:04.520Z,10.32
2023-04-02T08:22:34.482Z,10.31
2023-04-02T08:25:04.449Z,10.62
2023-04-02T08:27:34.488Z,10.72
2023-04-02T08:30:04.451Z,10.52
2023-04-02T08:32:34.530Z,10.62
2023-04-02T08:35:07.685Z,10.54
2023-04-02T08:37:37.623Z,10.81
2023-04-02T08:40:10.283Z,11.05
2023-04-02T08:42:49.411Z,11.16
2023-04-02T08:45:27.419Z,11.01
2023-04-02T08:48:03.485Z,10.94
2023-04-02T08:50:40.331Z,10.95
2023-04-02T08:53:18.682Z,11.35
2023-04-02T08:56:00.129Z,11.61
2023-04-02T08:58:43.323Z,11.48
2023-04-02T09:01:28.014Z,11.56
2023-04-02T09:04:02.160Z,11.53
2023-04-02T09:06:37.406Z,11.58
2023-04-02T09:09:07.900Z,11.61
2023-04-02T09:11:47.931Z,11.74
2023-04-02T09:14:22.858Z,11.98
2023-04-02T09:16:57.364Z,12.01
2023-04-02T09:19:36.407Z,12.11
2023-04-02T09:22:21.018Z,11.95
2023-04-02T09:24:55.086Z,12.14
2023-04-02T09:27:28.274Z,12.48
2023-04-02T09:30:06.843Z,12.32
2023-04-02T09:32:52.012Z,12.66
2023-04-02T09:35:27.659Z,12.81
2023-04-02T09:38:22.471Z,12.68
2023-04-02T09:41:01.668Z,13.01
2023-04-02T09:43:33.701Z,13.41
2023-04-02T09:46:06.460Z,13.21
2023-04-02T09:48:39.484Z,13.29
2023-04-02T09:51:16.505Z,13.31
2023-04-02T09:53:51.914Z,13.47
2023-04-02T09:56:24.470Z,13.09
2023-04-02T09:59:07.119Z,13.49
2023-04-02T10:01:39.694Z,13.58
2023-04-02T10:04:44.277Z,13.70
2023-04-02T10:07:34.944Z,13.50
2023-04-02T10:10:25.269Z,13.90
2023-04-02T10:13:03.691Z,13.93
2023-04-02T10:15:40.053Z,13.71
2023-04-02T10:18:19.630Z,13.74
2023-04-02T10:20:53.762Z,14.16
2023-04-02T10:23:31.368Z,14.18
2023-04-02T10:26:17.015Z,14.18
2023-04-02T10:29:12.763Z,14.34
2023-04-02T10:31:56.432Z,13.82
2023-04-02T10:34:35.811Z,14.12
2023-04-02T10:37:28.731Z,13.90
2023-04-02T10:40:10.000Z,13.41
2023-04-02T10:42:55.821Z,13.11
2023-04-02T10:45:43.088Z,13.19
2023-04-02T10:48:23.024Z,13.30
2023-04-02T10:51:01.095Z,12.79
2023-04-02T10:53:42.985Z,12.99
2023-04-02T10:56:17.205Z,12.74
2023-04-02T10:59:01.124Z,12.66
2023-04-02T11:01:34.568Z,12.87
2023-04-02T11:06:49.215Z,13.09
2023-04-02T11:09:24.697Z,13.27
2023-04-02T11:11:58.855Z,13.27
2023-04-02T11:14:33.368Z,12.93
2023-04-02T11:17:05.756Z,12.88
2023-04-02T11:19:37.953Z,12.96
2023-04-02T11:22:19.090Z,13.16
2023-04-02T11:24:51.668Z,13.23
2023-04-02T11:27:29.306Z,13.35
2023-04-02T11:30:09.102Z,13.51
2023-04-02T11:32:43.575Z,13.87
2023-04-02T11:35:41.621Z,14.25
2023-04-02T11:38:46.900Z,14.61
2023-04-02T11:41:16.958Z,15.62
2023-04-02T11:44:04.911Z,16.30
2023-04-02T11:46:51.764Z,16.01
2023-04-02T11:49:38.156Z,16.80
2023-04-02T11:52:24.872Z,17.26
2023-04-02T11:55:04.722Z,17.41
2023-04-02T11:58:01.057Z,17.91
2023-04-02T12:01:11.852Z,19.70
2023-04-02T12:04:11.989Z,19.00
2023-04-02T12:07:01.137Z,16.78
2023-04-02T12:09:34.650Z,16.43
2023-04-02T12:12:20.623Z,16.11
2023-04-02T12:14:53.774Z,16.19
2023-04-02T12:17:30.787Z,16.48
2023-04-02T12:20:09.465Z,15.60
2023-04-02T12:22:43.451Z,15.29
2023-04-02T12:25:29.609Z,15.01
2023-04-02T12:28:20.808Z,14.67
2023-04-02T12:30:53.105Z,14.34
2023-04-02T12:33:33.860Z,14.43
2023-04-02T12:36:10.239Z,14.16
2023-04-02T12:38:50.153Z,13.62
2023-04-02T12:41:30.223Z,13.52
2023-04-02T12:44:01.473Z,13.34
2023-04-02T12:46:33.958Z,13.59
2023-04-02T12:49:09.185Z,13.51
2023-04-02T12:51:42.705Z,13.20
2023-04-02T12:54:20.671Z,13.61
2023-04-02T12:56:51.757Z,13.74
2023-04-02T12:59:34.807Z,13.29
2023-04-02T13:02:18.738Z,13.56
2023-04-02T13:04:52.734Z,13.85
2023-04-02T13:07:28.081Z,13.91
2023-04-02T13:10:00.209Z,13.70
2023-04-02T13:12:36.694Z,13.63
2023-04-02T13:15:10.631Z,13.81
2023-04-02T13:17:46.001Z,13.59
2023-04-02T13:20:34.006Z,13.80
2023-04-02T13:23:28.330Z,13.15
2023-04-02T13:25:59.248Z,12.79
2023-04-02T13:28:29.868Z,12.36
2023-04-02T13:30:59.918Z,12.34
2023-04-02T13:33:29.930Z,12.02
2023-04-02T13:36:00.109Z,12.13
2023-04-02T13:38:32.809Z,12.27
2023-04-02T13:41:02.803Z,12.46
2023-04-02T13:43:32.806Z,12.37
2023-04-02T13:46:04.149Z,12.13
2023-04-02T13:48:34.347Z,12.12
2023-04-02T13:51:04.937Z,12.02
2023-04-02T13:53:37.660Z,11.63
2023-04-02T13:56:08.597Z,11.95
2023-04-02T13:58:38.653Z,11.57
2023-04-02T14:01:08.868Z,11.53
2023-04-02T14:03:38.935Z,11.49
2023-04-02T14:06:19.638Z,11.37
2023-04-02T14:09:05.404Z,11.52
2023-04-02T14:11:50.240Z,11.55
2023-04-02T14:14:47.403Z,11.58
2023-04-02T14:17:32.358Z,11.66
2023-04-02T14:20:19.853Z,11.48
2023-04-02T14:23:06.955Z,11.57
2023-04-02T14:25:51.540Z,11.52
2023-04-02T14:28:38.069Z,11.63
2023-04-02T14:31:20.741Z,11.61
2023-04-02T14:34:03.771Z,11.43
2023-04-02T14:36:48.725Z,11.13
2023-04-02T14:39:35.240Z,11.32
2023-04-02T14:42:17.470Z,11.30
2023-04-02T14:44:55.289Z,11.37
2023-04-02T14:47:32.430Z,11.27
2023-04-02T14:50:14.436Z,11.33
2023-04-02T14:52:50.097Z,11.33
2023-04-02T14:55:30.591Z,11.20
2023-04-02T14:58:08.297Z,11.19
2023-04-02T15:00:44.155Z,11.32
2023-04-02T15:03:23.864Z,11.14
2023-04-02T15:06:00.819Z,11.13
2023-04-02T15:08:36.098Z,11.16
2023-04-02T15:11:14.387Z,11.13
2023-04-02T15:13:55.386Z,11.17
2023-04-02T15:16:27.903Z,11.22
2023-04-02T15:19:01.487Z,11.08
2023-04-02T15:21:57.712Z,10.97
2023-04-02T15:24:41.107Z,10.95
2023-04-02T15:27:26.189Z,10.88
2023-04-02T15:30:06.390Z,10.83
2023-04-02T15:32:41.378Z,10.74
2023-04-02T15:35:35.791Z,10.65
2023-04-02T15:38:17.028Z,10.73
2023-04-02T15:41:00.593Z,10.58
2023-04-02T15:43:34.405Z,10.71
2023-04-02T15:46:23.074Z,10.58
2023-04-02T15:49:20.254Z,10.66
2023-04-02T15:52:05.621Z,10.55
2023-04-02T15:54:54.989Z,10.38
2023-04-02T15:57:58.777Z,10.58
2023-04-02T16:00:31.823Z,10.58
2023-04-02T16:03:30.494Z,10.51
2023-04-02T16:06:23.737Z,10.58
2023-04-02T16:09:11.527Z,10.57
2023-04-02T16:11:41.614Z,10.64
2023-04-02T16:14:27.441Z,10.62
2023-04-02T16:17:10.838Z,10.69
2023-04-02T16:19:50.577Z,10.66
2023-04-02T16:22:27.219Z,10.70
2023-04-02T16:25:03.709Z,10.54
2023-04-02T16:27:41.159Z,10.53
2023-04-02T16:30:43.385Z,10.41
2023-04-02T16:33:35.811Z,10.39
2023-04-02T16:36:24.328Z,10.34
2023-04-02T16:39:02.163Z,10.12
2023-04-02T16:41:50.863Z,9.99
2023-04-02T16:44:33.729Z,10.21
2023-04-02T16:47:25.981Z,10.13
2023-04-02T16:50:05.221Z,10.27
2023-04-02T16:52:50.002Z,10.08
2023-04-02T16:55:36.262Z,10.04
2023-04-02T16:58:25.897Z,9.96
2023-04-02T17:01:03.593Z,9.91
2023-04-02T17:03:57.832Z,9.89
2023-04-02T17:06:42.746Z,10.04
2023-04-02T17:09:21.271Z,10.00
2023-04-02T17:11:55.617Z,9.95
2023-04-02T17:14:36.126Z,9.77
2023-04-02T17:17:08.291Z,9.68
2023-04-02T17:19:38.332Z,9.63
2023-04-02T17:22:08.820Z,9.69
2023-04-02T17:24:45.474Z,9.71
2023-04-02T17:27:24.609Z,9.71
2023-04-02T17:29:58.847Z,9.57
2023-04-02T17:32:31.742Z,9.57
2023-04-02T17:35:20.063Z,9.61
2023-04-02T17:37:56.506Z,9.54
2023-04-02T17:40:38.370Z,9.60
2023-04-02T17:43:21.099Z,9.61
2023-04-02T17:45:55.637Z,9.57
2023-04-02T17:48:35.712Z,9.48
2023-04-02T17:51:17.754Z,9.42
2023-04-02T17:54:02.332Z,9.37
2023-04-02T17:57:04.718Z,9.28
2023-04-02T17:59:54.157Z,9.16
2023-04-02T18:02:41.980Z,9.12
2023-04-02T18:05:27.812Z,9.16
2023-04-02T18:08:14.715Z,8.94
2023-04-02T18:11:01.936Z,9.01
2023-04-02T18:13:38.526Z,8.97
2023-04-02T18:16:19.930Z,8.93
2023-04-02T18:19:11.072Z,9.04
2023-04-02T18:21:50.899Z,8.95
2023-04-02T18:24:49.197Z,8.92
2023-04-02T18:27:32.776Z,8.83
2023-04-02T18:30:17.783Z,8.70
2023-04-02T18:33:10.411Z,8.54
2023-04-02T18:35:52.144Z,8.58
2023-04-02T18:38:34.566Z,8.51
2023-04-02T18:41:17.606Z,8.42
2023-04-02T18:44:04.316Z,8.28
2023-04-02T18:46:46.576Z,8.30
2023-04-02T18:49:30.026Z,8.29
2023-04-02T18:52:04.975Z,8.31
2023-04-02T18:54:38.785Z,8.25
2023-04-02T18:57:16.589Z,8.22
2023-04-02T18:59:53.971Z,8.24
2023-04-02T19:02:37.517Z,8.28
2023-04-02T19:05:16.738Z,8.21
2023-04-02T19:07:51.021Z,8.19
2023-04-02T19:10:34.009Z,8.21
2023-04-02T19:13:04.395Z,8.11
2023-04-02T19:15:50.876Z,8.05
2023-04-02T19:18:36.572Z,8.06
2023-04-02T19:21:21.639Z,8.05
2023-04-02T19:24:09.811Z,8.15
2023-04-02T19:26:52.048Z,8.10
2023-04-02T19:29:38.563Z,7.98
2023-04-02T19:32:21.771Z,7.91
2023-04-02T19:35:05.637Z,7.80
2023-04-02T19:37:42.584Z,7.74
2023-04-02T19:40:31.003Z,7.74
2023-04-02T19:43:01.579Z,7.73
2023-04-02T19:45:39.535Z,7.68
2023-04-02T19:48:16.726Z,7.70
2023-04-02T19:50:51.062Z,7.68
2023-04-02T19:53:22.358Z,7.72
2023-04-02T19:55:52.487Z,7.50
2023-04-02T19:58:30.626Z,7.52
2023-04-02T20:01:01.855Z,7.76
2023-04-02T20:03:33.819Z,7.54
2023-04-02T20:06:06.773Z,7.56
2023-04-02T20:08:36.988Z,7.54
2023-04-02T20:11:12.833Z,7.40
2023-04-02T20:13:43.146Z,7.38
2023-04-02T20:16:14.771Z,7.30
2023-04-02T20:18:45.862Z,7.23
2023-04-02T20:21:18.892Z,7.25
2023-04-02T20:23:49.034Z,7.19
2023-04-02T20:26:19.176Z,7.12
2023-04-02T20:28:49.499Z,7.19
2023-04-02T20:31:24.005Z,7.00
2023-04-02T20:33:58.243Z,7.11
2023-04-02T20:36:31.462Z,7.13
2023-04-02T20:39:01.677Z,7.01
2023-04-02T20:41:31.944Z,6.88
2023-04-02T20:44:02.244Z,6.78
2023-04-02T20:46:33.775Z,6.76
2023-04-02T20:49:04.087Z,6.77
2023-04-02T20:51:37.691Z,6.83
2023-04-02T20:54:08.010Z,6.81
2023-04-02T20:56:39.991Z,6.85
2023-04-02T20:59:13.301Z,6.76
2023-04-02T21:01:45.658Z,6.63
2023-04-02T21:04:16.450Z,6.67
2023-04-02T21:06:57.343Z,6.71
2023-04-02T21:10:04.380Z,6.77
2023-04-02T21:12:35.824Z,6.79
2023-04-02T21:15:05.982Z,6.76
2023-04-02T21:17:36.102Z,6.82
2023-04-02T21:20:06.609Z,6.78
2023-04-02T21:22:39.185Z,6.68
2023-04-02T21:25:09.973Z,6.60
2023-04-02T21:27:39.904Z,6.58
2023-04-02T21:30:11.586Z,6.66
2023-04-02T21:32:41.585Z,6.72
2023-04-02T21:35:12.209Z,6.71
2023-04-02T21:37:45.393Z,6.71
2023-04-02T21:40:15.394Z,6.57
2023-04-02T21:42:45.323Z,6.61
2023-04-02T21:45:15.629Z,6.65
2023-04-02T21:47:45.814Z,6.68
2023-04-02T21:50:15.913Z,6.61
2023-04-02T21:52:48.472Z,6.65
2023-04-02T21:55:18.834Z,6.68
2023-04-02T21:57:48.761Z,6.66
2023-04-02T22:00:19.352Z,6.62
2023-04-02T22:02:49.501Z,6.75
2023-04-02T22:05:19.705Z,6.59
2023-04-02T22:07:52.435Z,6.53
2023-04-02T22:10:22.430Z,6.48
2023-04-02T22:12:52.884Z,6.42
2023-04-02T22:15:22.875Z,6.43
2023-04-02T22:17:53.048Z,6.52
2023-04-02T22:20:23.272Z,6.40
2023-04-02T22:22:56.711Z,6.32
2023-04-02T22:25:26.760Z,6.44
2023-04-02T22:27:56.686Z,6.43
2023-04-02T22:30:30.115Z,6.47
2023-04-02T22:33:00.255Z,6.36
2023-04-02T22:35:32.026Z,6.32
2023-04-02T22:38:06.950Z,6.22
2023-04-02T22:40:37.352Z,6.29
2023-04-02T22:43:07.592Z,6.26
2023-04-02T22:45:37.726Z,6.33
2023-04-02T22:48:07.904Z,6.27
2023-04-02T22:50:38.097Z,6.37
2023-04-02T22:53:12.095Z,6.28
2023-04-02T22:55:42.222Z,6.18
2023-04-02T22:58:12.252Z,6.36
2023-04-02T23:00:42.473Z,6.35
2023-04-02T23:03:12.586Z,6.33
2023-04-02T23:05:43.124Z,6.22
2023-04-02T23:08:18.185Z,6.36
2023-04-02T23:10:51.586Z,6.27
2023-04-02T23:13:21.510Z,6.14
2023-04-02T23:15:51.697Z,6.28
2023-04-02T23:18:21.884Z,6.27
2023-04-02T23:20:51.929Z,6.26
2023-04-02T23:23:24.775Z,6.25
2023-04-02T23:26:05.882Z,6.23
2023-04-02T23:28:36.374Z,6.26
2023-04-02T23:31:08.825Z,6.11
2023-04-02T23:33:38.843Z,6.25
2023-04-02T23:36:14.259Z,6.23
2023-04-02T23:38:46.917Z,6.35
2023-04-02T23:41:18.070Z,6.38
2023-04-02T23:43:47.999Z,6.17
2023-04-02T23:46:18.028Z,6.20
2023-04-02T23:48:48.915Z,6.27
2023-04-02T23:51:19.529Z,6.31
2023-04-02T23:53:52.903Z,6.31
2023-04-02T23:56:23.317Z,6.28
2023-04-02T23:58:53.957Z,6.27
